createdAt,value
2019-02-21T00:01:41.947Z,7.00
2019-02-21T00:04:11.814Z,6.90
2019-02-21T00:06:46.430Z,6.90
2019-02-21T00:09:21.193Z,6.90
2019-02-21T00:11:52.853Z,6.90
2019-02-21T00:14:22.739Z,6.90
2019-02-21T00:16:52.606Z,6.90
2019-02-21T00:19:22.382Z,6.90
2019-02-21T00:21:52.143Z,6.90
2019-02-21T00:24:32.083Z,6.90
2019-02-21T00:27:04.253Z,6.90
2019-02-21T00:29:37.424Z,6.80
2019-02-21T00:32:12.742Z,6.90
2019-02-21T00:34:47.619Z,6.80
2019-02-21T00:37:23.062Z,6.70
2019-02-21T00:39:55.296Z,6.70
2019-02-21T00:42:28.287Z,6.90
2019-02-21T00:44:59.802Z,6.90
2019-02-21T00:47:31.204Z,7.00
2019-02-21T00:50:00.923Z,7.10
2019-02-21T00:52:31.447Z,7.10
2019-02-21T00:55:03.186Z,7.10
2019-02-21T00:57:35.550Z,7.10
2019-02-21T01:00:05.693Z,7.10
2019-02-21T01:02:38.756Z,7.00
2019-02-21T01:05:08.618Z,7.10
2019-02-21T01:07:38.392Z,7.00
2019-02-21T01:10:09.131Z,6.90
2019-02-21T01:12:47.122Z,6.90
2019-02-21T01:15:18.935Z,6.90
2019-02-21T01:18:00.578Z,7.00
2019-02-21T01:20:31.158Z,7.10
2019-02-21T01:23:02.665Z,7.10
2019-02-21T01:25:33.336Z,7.10
2019-02-21T01:28:05.528Z,7.00
2019-02-21T01:30:36.589Z,7.10
2019-02-21T01:33:06.303Z,7.10
2019-02-21T01:35:36.073Z,7.20
2019-02-21T01:38:05.801Z,7.20
2019-02-21T01:40:35.583Z,7.20
2019-02-21T01:43:05.844Z,7.20
2019-02-21T01:45:35.545Z,7.20
2019-02-21T01:48:05.318Z,7.20
2019-02-21T01:50:36.027Z,7.30
2019-02-21T01:53:05.786Z,7.30
2019-02-21T01:55:35.503Z,7.30
2019-02-21T01:58:05.983Z,7.40
2019-02-21T02:00:35.760Z,7.40
2019-02-21T02:03:05.534Z,7.40
2019-02-21T02:05:35.297Z,7.40
2019-02-21T02:08:05.176Z,7.40
2019-02-21T02:10:34.862Z,7.40
2019-02-21T02:13:04.708Z,7.50
2019-02-21T02:15:34.479Z,7.50
2019-02-21T02:18:04.330Z,7.40
2019-02-21T02:20:39.772Z,7.50
2019-02-21T02:23:11.222Z,7.50
2019-02-21T02:25:43.275Z,7.60
2019-02-21T02:28:13.051Z,7.60
2019-02-21T02:30:42.903Z,7.60
2019-02-21T02:33:12.694Z,7.60
2019-02-21T02:35:44.184Z,7.60
2019-02-21T02:38:13.906Z,7.60
2019-02-21T02:40:44.749Z,7.60
2019-02-21T02:43:14.504Z,7.60
2019-02-21T02:45:44.270Z,7.60
2019-02-21T02:48:16.414Z,7.50
2019-02-21T02:50:55.119Z,7.50
2019-02-21T02:53:25.438Z,7.40
2019-02-21T02:55:57.810Z,7.40
2019-02-21T02:58:27.606Z,7.40
2019-02-21T03:00:57.450Z,7.40
2019-02-21T03:03:27.174Z,7.40
2019-02-21T03:05:56.970Z,7.30
2019-02-21T03:08:26.675Z,7.30
2019-02-21T03:10:56.415Z,7.30
2019-02-21T03:13:26.289Z,7.30
2019-02-21T03:15:56.163Z,7.30
2019-02-21T03:18:25.982Z,7.30
2019-02-21T03:20:55.704Z,7.30
2019-02-21T03:23:27.305Z,7.30
2019-02-21T03:25:58.250Z,7.30
2019-02-21T03:28:31.319Z,7.20
2019-02-21T03:31:01.070Z,7.20
2019-02-21T03:33:33.911Z,7.20
2019-02-21T03:36:03.791Z,7.20
2019-02-21T03:38:35.046Z,7.20
2019-02-21T03:41:05.214Z,7.20
2019-02-21T03:43:36.027Z,7.20
2019-02-21T03:46:05.951Z,7.20
2019-02-21T03:48:40.447Z,7.10
2019-02-21T03:51:10.129Z,7.10
2019-02-21T03:53:42.321Z,7.10
2019-02-21T03:56:14.575Z,7.20
2019-02-21T03:58:44.754Z,7.30
2019-02-21T04:01:14.586Z,7.40
2019-02-21T04:03:45.390Z,7.50
2019-02-21T04:06:16.295Z,7.60
2019-02-21T04:08:54.512Z,7.70
2019-02-21T04:11:24.366Z,7.70
2019-02-21T04:13:56.610Z,7.80
2019-02-21T04:16:26.427Z,7.90
2019-02-21T04:19:01.518Z,8.00
2019-02-21T04:21:33.546Z,8.00
2019-02-21T04:24:03.388Z,8.00
2019-02-21T04:26:33.155Z,8.10
2019-02-21T04:29:02.943Z,8.10
2019-02-21T04:31:35.020Z,8.20
2019-02-21T04:34:07.810Z,8.20
2019-02-21T04:36:37.501Z,8.10
2019-02-21T04:39:07.278Z,8.00
2019-02-21T04:41:38.299Z,8.00
2019-02-21T04:44:08.107Z,8.00
2019-02-21T04:46:40.702Z,7.90
2019-02-21T04:49:10.418Z,7.90
2019-02-21T04:51:40.146Z,7.80
2019-02-21T04:54:12.404Z,7.80
2019-02-21T04:56:42.266Z,7.80
2019-02-21T04:59:12.046Z,7.80
2019-02-21T05:01:41.911Z,7.80
2019-02-21T05:04:17.138Z,7.80
2019-02-21T05:06:46.923Z,7.70
2019-02-21T05:09:16.629Z,7.70
2019-02-21T05:11:48.262Z,7.70
2019-02-21T05:14:18.746Z,7.70
2019-02-21T05:16:48.448Z,7.80
2019-02-21T05:19:18.211Z,7.80
2019-02-21T05:21:49.084Z,7.70
2019-02-21T05:24:18.971Z,7.70
2019-02-21T05:26:52.579Z,7.70
2019-02-21T05:29:24.175Z,7.60
2019-02-21T05:32:07.792Z,7.60
2019-02-21T05:34:50.355Z,7.70
2019-02-21T05:37:42.442Z,7.80
2019-02-21T05:40:43.559Z,7.80
2019-02-21T05:43:48.198Z,7.90
2019-02-21T05:46:43.025Z,8.00
2019-02-21T05:49:30.126Z,8.00
2019-02-21T05:52:10.365Z,8.00
2019-02-21T05:54:57.347Z,8.10
2019-02-21T05:57:42.115Z,8.10
2019-02-21T06:00:37.432Z,8.20
2019-02-21T06:03:53.454Z,8.10
2019-02-21T06:06:36.800Z,8.10
2019-02-21T06:09:13.470Z,8.10
2019-02-21T06:12:00.931Z,8.00
2019-02-21T06:14:45.178Z,8.10
2019-02-21T06:17:22.940Z,8.10
2019-02-21T06:20:17.802Z,8.20
2019-02-21T06:23:01.967Z,8.20
2019-02-21T06:25:51.423Z,8.10
2019-02-21T06:28:26.558Z,8.10
2019-02-21T06:31:00.265Z,8.10
2019-02-21T06:33:30.063Z,8.10
2019-02-21T06:36:03.224Z,8.10
2019-02-21T06:38:34.548Z,8.00
2019-02-21T06:41:04.264Z,8.00
2019-02-21T06:43:33.982Z,8.10
2019-02-21T06:46:03.693Z,8.00
2019-02-21T06:48:35.033Z,8.00
2019-02-21T06:51:04.864Z,8.00
2019-02-21T06:53:35.850Z,8.10
2019-02-21T06:56:10.194Z,8.10
2019-02-21T06:58:42.065Z,8.20
2019-02-21T07:01:12.718Z,8.20
2019-02-21T07:03:42.428Z,8.30
2019-02-21T07:06:19.014Z,8.20
2019-02-21T07:08:50.054Z,8.30
2019-02-21T07:11:19.810Z,8.30
2019-02-21T07:13:49.607Z,8.30
2019-02-21T07:16:21.156Z,8.30
2019-02-21T07:18:50.859Z,8.30
2019-02-21T07:21:27.415Z,8.30
2019-02-21T07:24:00.024Z,8.40
2019-02-21T07:26:32.039Z,8.40
2019-02-21T07:29:01.809Z,8.40
2019-02-21T07:31:32.593Z,8.50
2019-02-21T07:34:02.566Z,8.50
2019-02-21T07:36:33.722Z,8.60
2019-02-21T07:39:17.002Z,8.60
2019-02-21T07:41:38.446Z,8.70
2019-02-21T07:44:13.944Z,8.80
2019-02-21T07:46:46.182Z,8.80
2019-02-21T07:49:15.132Z,8.80
2019-02-21T07:51:44.893Z,8.80
2019-02-21T07:54:14.584Z,8.80
2019-02-21T07:56:44.334Z,8.90
2019-02-21T07:59:15.931Z,9.00
2019-02-21T08:01:57.687Z,9.00
2019-02-21T08:04:28.971Z,9.00
2019-02-21T08:06:58.682Z,9.00
2019-02-21T08:09:33.430Z,9.00
2019-02-21T08:12:08.142Z,9.10
2019-02-21T08:14:38.038Z,9.20
2019-02-21T08:17:12.397Z,9.30
2019-02-21T08:19:46.791Z,9.40
2019-02-21T08:22:16.527Z,9.50
2019-02-21T08:24:46.302Z,9.60
2019-02-21T08:27:17.648Z,9.70
2019-02-21T08:29:47.451Z,9.80
2019-02-21T08:32:20.224Z,9.90
2019-02-21T08:34:55.554Z,9.90
2019-02-21T08:37:25.373Z,9.90
2019-02-21T08:40:02.124Z,9.90
2019-02-21T08:42:34.039Z,9.90
2019-02-21T08:45:08.732Z,10.00
2019-02-21T08:47:38.435Z,10.00
2019-02-21T08:50:08.411Z,10.10
2019-02-21T08:52:38.139Z,10.20
2019-02-21T08:55:09.579Z,10.30
2019-02-21T08:57:39.313Z,10.30
2019-02-21T09:00:12.056Z,10.30
2019-02-21T09:02:47.210Z,10.30
2019-02-21T09:05:20.182Z,10.40
2019-02-21T09:07:52.668Z,10.40
2019-02-21T09:10:22.550Z,10.40
2019-02-21T09:12:53.530Z,10.50
2019-02-21T09:15:25.333Z,10.50
2019-02-21T09:17:58.183Z,10.40
2019-02-21T09:20:29.180Z,10.40
2019-02-21T09:23:07.017Z,10.50
2019-02-21T09:25:42.691Z,10.40
2019-02-21T09:28:15.965Z,10.40
2019-02-21T09:30:47.934Z,10.40
2019-02-21T09:33:21.302Z,10.50
2019-02-21T09:35:56.543Z,10.40
2019-02-21T09:38:25.525Z,10.40
2019-02-21T09:40:56.770Z,10.40
2019-02-21T09:43:26.515Z,10.40
2019-02-21T09:45:59.375Z,10.30
2019-02-21T09:48:30.429Z,10.20
2019-02-21T09:51:02.097Z,10.10
2019-02-21T09:53:32.026Z,10.10
2019-02-21T09:56:02.297Z,10.10
2019-02-21T09:58:37.579Z,10.00
2019-02-21T10:01:08.731Z,9.80
2019-02-21T10:03:44.092Z,9.70
2019-02-21T10:06:14.818Z,9.70
2019-02-21T10:08:44.849Z,9.70
2019-02-21T10:11:17.505Z,9.80
2019-02-21T10:13:47.933Z,9.90
2019-02-21T10:16:17.820Z,10.10
2019-02-21T10:18:52.630Z,10.10
2019-02-21T10:21:22.975Z,10.10
2019-02-21T10:23:52.847Z,10.10
2019-02-21T10:26:23.804Z,10.10
2019-02-21T10:28:58.501Z,10.10
2019-02-21T10:31:31.559Z,10.20
2019-02-21T10:34:01.333Z,10.20
2019-02-21T10:36:31.147Z,10.20
2019-02-21T10:39:07.192Z,10.10
2019-02-21T10:41:38.125Z,10.00
2019-02-21T10:44:08.693Z,10.00
2019-02-21T10:46:38.827Z,10.00
2019-02-21T10:49:11.172Z,10.00
2019-02-21T10:51:42.263Z,10.00
2019-02-21T10:54:15.377Z,10.00
2019-02-21T10:56:47.379Z,10.00
2019-02-21T10:59:18.838Z,10.00
2019-02-21T11:01:51.401Z,10.10
2019-02-21T11:04:22.521Z,10.20
2019-02-21T11:06:56.354Z,10.40
2019-02-21T11:09:26.224Z,10.60
2019-02-21T11:11:56.942Z,10.80
2019-02-21T11:14:29.069Z,10.90
2019-02-21T11:16:58.890Z,10.90
2019-02-21T11:19:28.779Z,11.00
2019-02-21T11:22:00.561Z,11.00
2019-02-21T11:24:35.243Z,11.00
2019-02-21T11:27:08.452Z,11.00
2019-02-21T11:29:38.306Z,11.10
2019-02-21T11:32:09.282Z,11.10
2019-02-21T11:34:39.062Z,11.20
2019-02-21T11:37:09.067Z,11.30
2019-02-21T11:39:40.856Z,11.50
2019-02-21T11:42:12.447Z,11.50
2019-02-21T11:44:44.015Z,11.50
2019-02-21T11:47:15.054Z,11.50
2019-02-21T11:49:45.919Z,11.40
2019-02-21T11:52:15.824Z,11.60
2019-02-21T11:54:47.946Z,11.60
2019-02-21T11:57:19.497Z,11.70
2019-02-21T11:59:49.725Z,11.80
2019-02-21T12:02:19.925Z,11.80
2019-02-21T12:04:51.871Z,11.60
2019-02-21T12:07:29.692Z,11.70
2019-02-21T12:10:00.789Z,11.80
2019-02-21T12:12:31.797Z,12.00
2019-02-21T12:15:03.017Z,12.00
2019-02-21T12:17:33.499Z,12.00
2019-02-21T12:20:04.125Z,11.90
2019-02-21T12:22:36.178Z,12.00
2019-02-21T12:25:08.471Z,12.00
2019-02-21T12:27:40.839Z,11.90
2019-02-21T12:30:17.879Z,11.80
2019-02-21T12:32:47.859Z,11.90
2019-02-21T12:35:28.728Z,11.90
2019-02-21T12:37:49.500Z,11.80
2019-02-21T12:40:20.304Z,11.70
2019-02-21T12:42:50.312Z,11.70
2019-02-21T12:45:20.374Z,11.50
2019-02-21T12:47:56.059Z,11.40
2019-02-21T12:50:26.170Z,11.40
2019-02-21T12:52:55.983Z,11.40
2019-02-21T12:55:31.726Z,11.30
2019-02-21T12:58:00.663Z,11.30
2019-02-21T13:00:31.518Z,11.30
2019-02-21T13:03:01.338Z,11.20
2019-02-21T13:05:40.358Z,11.10
2019-02-21T13:08:07.298Z,11.10
2019-02-21T13:10:40.821Z,11.00
2019-02-21T13:13:11.876Z,10.90
2019-02-21T13:15:41.615Z,10.90
2019-02-21T13:18:15.819Z,10.90
2019-02-21T13:20:45.334Z,11.00
2019-02-21T13:23:15.158Z,10.90
2019-02-21T13:25:48.130Z,10.70
2019-02-21T13:28:18.295Z,10.70
2019-02-21T13:30:48.294Z,10.70
2019-02-21T13:33:19.908Z,10.70
2019-02-21T13:35:53.024Z,10.70
2019-02-21T13:38:23.524Z,10.70
2019-02-21T13:40:59.381Z,10.70
2019-02-21T13:43:35.958Z,10.60
2019-02-21T13:46:09.497Z,10.60
2019-02-21T13:48:44.310Z,10.50
2019-02-21T13:51:14.622Z,10.30
2019-02-21T13:53:44.538Z,10.20
2019-02-21T13:56:14.441Z,10.10
2019-02-21T13:58:46.026Z,10.00
2019-02-21T14:01:15.830Z,9.90
2019-02-21T14:03:53.523Z,9.70
2019-02-21T14:06:24.548Z,9.70
2019-02-21T14:08:57.191Z,9.70
2019-02-21T14:11:30.824Z,9.60
2019-02-21T14:14:03.929Z,9.60
2019-02-21T14:16:43.788Z,9.50
2019-02-21T14:19:06.307Z,9.50
2019-02-21T14:21:38.288Z,9.50
2019-02-21T14:24:10.432Z,9.50
2019-02-21T14:26:43.227Z,9.50
2019-02-21T14:29:13.016Z,9.40
2019-02-21T14:31:42.896Z,9.50
2019-02-21T14:34:17.886Z,9.40
2019-02-21T14:36:47.705Z,9.40
2019-02-21T14:39:18.111Z,9.40
2019-02-21T14:41:49.738Z,9.40
2019-02-21T14:44:19.563Z,9.40
2019-02-21T14:46:50.344Z,9.30
2019-02-21T14:49:20.323Z,9.40
2019-02-21T14:51:54.099Z,9.40
2019-02-21T14:54:23.816Z,9.40
2019-02-21T14:56:53.574Z,9.40
2019-02-21T14:59:23.368Z,9.50
2019-02-21T15:01:54.734Z,9.40
2019-02-21T15:04:25.580Z,9.50
2019-02-21T15:06:59.399Z,9.50
2019-02-21T15:09:30.834Z,9.50
2019-02-21T15:12:01.875Z,9.50
2019-02-21T15:14:31.575Z,9.50
2019-02-21T15:17:04.744Z,9.50
2019-02-21T15:19:36.010Z,9.50
2019-02-21T15:22:05.731Z,9.50
2019-02-21T15:24:35.516Z,9.50
2019-02-21T15:27:08.751Z,9.50
2019-02-21T15:29:41.828Z,9.50
2019-02-21T15:32:14.152Z,9.40
2019-02-21T15:34:43.100Z,9.40
2019-02-21T15:37:19.537Z,9.40
2019-02-21T15:39:49.291Z,9.30
2019-02-21T15:42:19.791Z,9.30
2019-02-21T15:44:49.614Z,9.30
2019-02-21T15:47:20.784Z,9.20
2019-02-21T15:49:50.795Z,9.20
2019-02-21T15:52:22.714Z,9.10
2019-02-21T15:54:54.709Z,9.10
2019-02-21T15:57:24.706Z,9.10
2019-02-21T15:59:54.539Z,9.10
2019-02-21T16:02:25.302Z,9.10
2019-02-21T16:05:00.004Z,9.10
2019-02-21T16:07:31.943Z,9.20
2019-02-21T16:10:02.919Z,9.10
2019-02-21T16:12:34.394Z,9.20
2019-02-21T16:15:11.590Z,9.10
2019-02-21T16:17:44.312Z,9.10
2019-02-21T16:20:14.799Z,9.10
2019-02-21T16:22:48.647Z,9.10
2019-02-21T16:25:25.226Z,9.10
2019-02-21T16:28:00.711Z,9.10
2019-02-21T16:30:30.937Z,9.10
2019-02-21T16:33:00.655Z,9.10
2019-02-21T16:35:38.650Z,9.10
2019-02-21T16:38:08.350Z,9.20
2019-02-21T16:40:38.231Z,9.20
2019-02-21T16:43:08.012Z,9.10
2019-02-21T16:45:46.363Z,9.10
2019-02-21T16:48:13.705Z,9.20
2019-02-21T16:50:44.031Z,9.20
2019-02-21T16:53:14.064Z,9.20
2019-02-21T16:55:45.537Z,9.20
2019-02-21T16:58:15.307Z,9.20
2019-02-21T17:00:53.866Z,9.20
2019-02-21T17:03:22.047Z,9.20
2019-02-21T17:05:51.783Z,9.30
2019-02-21T17:08:23.354Z,9.30
2019-02-21T17:10:54.325Z,9.20
2019-02-21T17:13:25.643Z,9.30
2019-02-21T17:15:58.567Z,9.30
2019-02-21T17:18:28.853Z,9.30
2019-02-21T17:21:04.617Z,9.30
2019-02-21T17:23:36.851Z,9.30
2019-02-21T17:26:08.054Z,9.20
2019-02-21T17:28:37.850Z,9.30
2019-02-21T17:31:08.775Z,9.30
2019-02-21T17:33:39.819Z,9.20
2019-02-21T17:36:14.666Z,9.20
2019-02-21T17:38:46.248Z,9.20
2019-02-21T17:41:15.946Z,9.20
2019-02-21T17:43:49.152Z,9.20
2019-02-21T17:46:20.702Z,9.30
2019-02-21T17:48:53.247Z,9.30
2019-02-21T17:51:27.364Z,9.30
2019-02-21T17:53:59.627Z,9.30
2019-02-21T17:56:30.820Z,9.40
2019-02-21T17:59:00.589Z,9.40
2019-02-21T18:01:30.355Z,9.30
2019-02-21T18:04:03.102Z,9.40
2019-02-21T18:06:33.235Z,9.30
2019-02-21T18:09:04.738Z,9.30
2019-02-21T18:11:36.352Z,9.30
2019-02-21T18:14:06.703Z,9.30
2019-02-21T18:16:38.470Z,9.40
2019-02-21T18:19:08.255Z,9.40
2019-02-21T18:21:39.677Z,9.40
2019-02-21T18:24:14.179Z,9.40
2019-02-21T18:26:46.202Z,9.40
2019-02-21T18:29:18.122Z,9.30
2019-02-21T18:31:47.886Z,9.30
2019-02-21T18:34:17.674Z,9.30
2019-02-21T18:36:49.299Z,9.30
2019-02-21T18:39:22.339Z,9.30
2019-02-21T18:41:56.122Z,9.40
2019-02-21T18:44:26.414Z,9.40
2019-02-21T18:46:59.354Z,9.40
2019-02-21T18:49:29.267Z,9.30
2019-02-21T18:51:58.955Z,9.30
2019-02-21T18:54:28.676Z,9.30
2019-02-21T18:56:59.676Z,9.30
2019-02-21T18:59:32.026Z,9.30
2019-02-21T19:02:03.143Z,9.30
2019-02-21T19:04:35.201Z,9.30
2019-02-21T19:07:05.093Z,9.30
2019-02-21T19:09:35.135Z,9.30
2019-02-21T19:12:04.951Z,9.30
2019-02-21T19:14:34.750Z,9.30
2019-02-21T19:17:05.050Z,9.30
2019-02-21T19:19:34.882Z,9.30
2019-02-21T19:22:05.935Z,9.30
2019-02-21T19:24:37.586Z,9.30
2019-02-21T19:27:13.509Z,9.30
2019-02-21T19:29:44.258Z,9.30
2019-02-21T19:32:14.031Z,9.30
2019-02-21T19:34:43.843Z,9.20
2019-02-21T19:37:14.776Z,9.30
2019-02-21T19:39:44.911Z,9.20
2019-02-21T19:42:14.687Z,9.30
2019-02-21T19:44:44.455Z,9.20
2019-02-21T19:47:14.163Z,9.30
2019-02-21T19:49:44.107Z,9.30
2019-02-21T19:52:13.957Z,9.30
2019-02-21T19:54:46.973Z,9.30
2019-02-21T19:57:17.886Z,9.20
2019-02-21T19:59:51.963Z,9.20
2019-02-21T20:02:24.132Z,9.30
2019-02-21T20:05:06.561Z,9.30
2019-02-21T20:07:36.590Z,9.30
2019-02-21T20:10:08.087Z,9.30
2019-02-21T20:12:37.941Z,9.30
2019-02-21T20:15:08.620Z,9.20
2019-02-21T20:17:38.737Z,9.20
2019-02-21T20:20:11.819Z,9.20
2019-02-21T20:22:41.610Z,9.30
2019-02-21T20:25:11.383Z,9.30
2019-02-21T20:27:41.166Z,9.30
2019-02-21T20:30:13.654Z,9.30
2019-02-21T20:32:43.890Z,9.30
2019-02-21T20:35:13.796Z,9.30
2019-02-21T20:37:43.657Z,9.30
2019-02-21T20:40:15.078Z,9.20
2019-02-21T20:42:44.894Z,9.20
2019-02-21T20:45:15.198Z,9.20
2019-02-21T20:47:45.150Z,9.20
2019-02-21T20:50:15.030Z,9.30
2019-02-21T20:52:49.867Z,9.20
2019-02-21T20:55:22.785Z,9.30
2019-02-21T20:57:57.926Z,9.30
2019-02-21T21:00:27.819Z,9.30
2019-02-21T21:02:59.195Z,9.30
2019-02-21T21:05:32.207Z,9.30
2019-02-21T21:08:02.158Z,9.40
2019-02-21T21:10:34.514Z,9.30
2019-02-21T21:13:09.090Z,9.30
2019-02-21T21:15:39.247Z,9.40
2019-02-21T21:18:12.166Z,9.30
2019-02-21T21:20:44.226Z,9.40
2019-02-21T21:23:14.002Z,9.40
2019-02-21T21:25:44.175Z,9.30
2019-02-21T21:28:14.058Z,9.40
2019-02-21T21:30:43.939Z,9.40
2019-02-21T21:33:17.964Z,9.40
2019-02-21T21:35:47.759Z,9.40
2019-02-21T21:38:24.191Z,9.40
2019-02-21T21:40:49.470Z,9.30
2019-02-21T21:43:19.743Z,9.40
2019-02-21T21:46:07.695Z,9.30
2019-02-21T21:48:37.805Z,9.30
2019-02-21T21:51:11.103Z,9.40
2019-02-21T21:53:40.896Z,9.40
2019-02-21T21:56:10.678Z,9.40
2019-02-21T21:58:40.749Z,9.30
2019-02-21T22:01:10.553Z,9.30
2019-02-21T22:03:40.426Z,9.30
2019-02-21T22:06:10.376Z,9.30
2019-02-21T22:08:40.062Z,9.40
2019-02-21T22:11:11.222Z,9.40
2019-02-21T22:13:40.897Z,9.30
2019-02-21T22:16:10.611Z,9.30
2019-02-21T22:18:42.730Z,9.30
2019-02-21T22:21:12.414Z,9.30
2019-02-21T22:23:42.106Z,9.30
2019-02-21T22:26:11.883Z,9.40
2019-02-21T22:28:44.410Z,9.40
2019-02-21T22:31:14.179Z,9.30
2019-02-21T22:33:48.986Z,9.40
2019-02-21T22:36:19.590Z,9.40
2019-02-21T22:38:51.942Z,9.20
2019-02-21T22:41:21.758Z,9.30
2019-02-21T22:43:53.400Z,9.30
2019-02-21T22:46:23.341Z,9.30
2019-02-21T22:48:54.447Z,9.30
2019-02-21T22:51:26.659Z,9.40
2019-02-21T22:53:56.632Z,9.30
2019-02-21T22:56:26.405Z,9.40
2019-02-21T22:58:56.094Z,9.40
2019-02-21T23:01:32.566Z,9.40
2019-02-21T23:04:24.831Z,9.40
2019-02-21T23:07:25.545Z,9.40
2019-02-21T23:09:55.348Z,9.40
2019-02-21T23:12:25.135Z,9.40
2019-02-21T23:14:56.210Z,9.40
2019-02-21T23:17:29.047Z,9.30
2019-02-21T23:20:07.082Z,9.40
2019-02-21T23:22:36.859Z,9.40
2019-02-21T23:25:09.610Z,9.40
2019-02-21T23:27:39.418Z,9.40
2019-02-21T23:30:13.410Z,9.40
2019-02-21T23:32:43.179Z,9.40
2019-02-21T23:35:23.429Z,9.40
2019-02-21T23:37:53.271Z,9.30
2019-02-21T23:40:24.246Z,9.40
2019-02-21T23:42:54.212Z,9.40
2019-02-21T23:45:24.399Z,9.40
2019-02-21T23:47:54.227Z,9.40
2019-02-21T23:50:23.939Z,9.40
2019-02-21T23:52:53.713Z,9.50
2019-02-21T23:55:23.536Z,9.40
2019-02-21T23:57:53.341Z,9.40
